sensor_id;sensor_type;location;lat;lon;timestamp;P1;durP1;ratioP1;P2;durP2;ratioP2
58097;SDS011;43913;55.940;37.504;2023-01-19T00:00:34;16.92;;;11.32;;
58097;SDS011;43913;55.940;37.504;2023-01-19T00:03:00;18.65;;;11.68;;
58097;SDS011;43913;55.940;37.504;2023-01-19T00:05:28;16.00;;;11.88;;
58097;SDS011;43913;55.940;37.504;2023-01-19T00:07:53;17.95;;;11.85;;
58097;SDS011;43913;55.940;37.504;2023-01-19T00:10:19;24.90;;;12.98;;
58097;SDS011;43913;55.940;37.504;2023-01-19T00:12:45;17.27;;;12.52;;
58097;SDS011;43913;55.940;37.504;2023-01-19T00:15:11;19.33;;;12.88;;
58097;SDS011;43913;55.940;37.504;2023-01-19T00:17:36;18.52;;;12.75;;
58097;SDS011;43913;55.940;37.504;2023-01-19T00:20:06;17.90;;;11.77;;
58097;SDS011;43913;55.940;37.504;2023-01-19T00:22:32;21.02;;;11.95;;
58097;SDS011;43913;55.940;37.504;2023-01-19T00:24:58;16.55;;;11.63;;
58097;SDS011;43913;55.940;37.504;2023-01-19T00:27:24;20.33;;;12.48;;
58097;SDS011;43913;55.940;37.504;2023-01-19T00:29:50;18.15;;;11.27;;
58097;SDS011;43913;55.940;37.504;2023-01-19T00:32:16;14.30;;;9.82;;
58097;SDS011;43913;55.940;37.504;2023-01-19T00:34:42;17.23;;;11.10;;
58097;SDS011;43913;55.940;37.504;2023-01-19T00:37:13;15.50;;;10.38;;
58097;SDS011;43913;55.940;37.504;2023-01-19T00:39:41;16.60;;;10.68;;
58097;SDS011;43913;55.940;37.504;2023-01-19T00:42:07;15.13;;;10.35;;
58097;SDS011;43913;55.940;37.504;2023-01-19T00:44:54;15.00;;;11.52;;
58097;SDS011;43913;55.940;37.504;2023-01-19T00:47:20;15.93;;;11.32;;
58097;SDS011;43913;55.940;37.504;2023-01-19T00:49:45;15.98;;;11.13;;
58097;SDS011;43913;55.940;37.504;2023-01-19T00:52:11;17.48;;;10.50;;
58097;SDS011;43913;55.940;37.504;2023-01-19T00:54:37;15.35;;;10.32;;
58097;SDS011;43913;55.940;37.504;2023-01-19T00:57:02;15.18;;;10.68;;
58097;SDS011;43913;55.940;37.504;2023-01-19T00:59:28;14.32;;;9.65;;
58097;SDS011;43913;55.940;37.504;2023-01-19T01:01:54;15.02;;;10.30;;
58097;SDS011;43913;55.940;37.504;2023-01-19T01:04:19;15.88;;;10.30;;
58097;SDS011;43913;55.940;37.504;2023-01-19T01:06:45;14.02;;;9.85;;
58097;SDS011;43913;55.940;37.504;2023-01-19T01:09:11;14.30;;;8.73;;
58097;SDS011;43913;55.940;37.504;2023-01-19T01:11:37;13.77;;;9.13;;
58097;SDS011;43913;55.940;37.504;2023-01-19T01:14:04;12.73;;;9.15;;
58097;SDS011;43913;55.940;37.504;2023-01-19T01:16:30;16.25;;;10.65;;
58097;SDS011;43913;55.940;37.504;2023-01-19T01:18:55;15.55;;;9.93;;
58097;SDS011;43913;55.940;37.504;2023-01-19T01:21:21;13.57;;;9.55;;
58097;SDS011;43913;55.940;37.504;2023-01-19T01:23:48;17.05;;;10.15;;
58097;SDS011;43913;55.940;37.504;2023-01-19T01:26:13;16.70;;;9.52;;
58097;SDS011;43913;55.940;37.504;2023-01-19T01:28:39;14.63;;;10.23;;
58097;SDS011;43913;55.940;37.504;2023-01-19T01:31:05;14.88;;;9.90;;
58097;SDS011;43913;55.940;37.504;2023-01-19T01:33:30;13.23;;;9.75;;
58097;SDS011;43913;55.940;37.504;2023-01-19T01:35:56;14.98;;;9.93;;
58097;SDS011;43913;55.940;37.504;2023-01-19T01:38:22;14.60;;;9.18;;
58097;SDS011;43913;55.940;37.504;2023-01-19T01:40:47;13.57;;;9.90;;
58097;SDS011;43913;55.940;37.504;2023-01-19T01:43:14;13.68;;;9.88;;
58097;SDS011;43913;55.940;37.504;2023-01-19T01:45:41;14.98;;;9.82;;
58097;SDS011;43913;55.940;37.504;2023-01-19T01:48:12;13.45;;;8.75;;
58097;SDS011;43913;55.940;37.504;2023-01-19T01:50:40;12.27;;;9.40;;
58097;SDS011;43913;55.940;37.504;2023-01-19T01:53:32;12.63;;;8.80;;
58097;SDS011;43913;55.940;37.504;2023-01-19T01:55:59;13.32;;;9.80;;
58097;SDS011;43913;55.940;37.504;2023-01-19T01:58:26;15.10;;;9.02;;
58097;SDS011;43913;55.940;37.504;2023-01-19T02:00:52;13.48;;;8.93;;
58097;SDS011;43913;55.940;37.504;2023-01-19T02:03:36;14.15;;;9.90;;
58097;SDS011;43913;55.940;37.504;2023-01-19T02:06:09;11.98;;;9.23;;
58097;SDS011;43913;55.940;37.504;2023-01-19T02:08:38;16.98;;;9.10;;
58097;SDS011;43913;55.940;37.504;2023-01-19T02:11:25;12.38;;;9.32;;
58097;SDS011;43913;55.940;37.504;2023-01-19T02:14:09;13.70;;;9.40;;
58097;SDS011;43913;55.940;37.504;2023-01-19T02:16:35;15.50;;;9.15;;
58097;SDS011;43913;55.940;37.504;2023-01-19T02:19:02;13.40;;;10.18;;
58097;SDS011;43913;55.940;37.504;2023-01-19T02:21:35;12.45;;;9.05;;
58097;SDS011;43913;55.940;37.504;2023-01-19T02:24:07;12.55;;;9.35;;
58097;SDS011;43913;55.940;37.504;2023-01-19T02:26:34;15.90;;;10.38;;
58097;SDS011;43913;55.940;37.504;2023-01-19T02:29:04;13.80;;;9.43;;
58097;SDS011;43913;55.940;37.504;2023-01-19T02:31:32;15.45;;;9.85;;
58097;SDS011;43913;55.940;37.504;2023-01-19T02:33:58;10.13;;;8.95;;
58097;SDS011;43913;55.940;37.504;2023-01-19T02:36:26;13.80;;;9.88;;
58097;SDS011;43913;55.940;37.504;2023-01-19T02:38:55;12.30;;;8.65;;
58097;SDS011;43913;55.940;37.504;2023-01-19T02:41:21;11.98;;;8.73;;
58097;SDS011;43913;55.940;37.504;2023-01-19T02:43:51;11.10;;;9.35;;
58097;SDS011;43913;55.940;37.504;2023-01-19T02:46:18;12.65;;;9.20;;
58097;SDS011;43913;55.940;37.504;2023-01-19T02:48:43;12.57;;;8.70;;
58097;SDS011;43913;55.940;37.504;2023-01-19T02:51:10;11.82;;;8.82;;
58097;SDS011;43913;55.940;37.504;2023-01-19T03:01:48;16.58;;;9.40;;
58097;SDS011;43913;55.940;37.504;2023-01-19T03:07:40;11.82;;;8.75;;
58097;SDS011;43913;55.940;37.504;2023-01-19T03:13:04;14.50;;;9.45;;
58097;SDS011;43913;55.940;37.504;2023-01-19T03:15:49;12.88;;;8.75;;
58097;SDS011;43913;55.940;37.504;2023-01-19T03:18:19;14.30;;;9.50;;
58097;SDS011;43913;55.940;37.504;2023-01-19T03:20:47;12.60;;;9.50;;
58097;SDS011;43913;55.940;37.504;2023-01-19T03:23:15;13.73;;;9.85;;
58097;SDS011;43913;55.940;37.504;2023-01-19T03:25:42;11.23;;;9.27;;
58097;SDS011;43913;55.940;37.504;2023-01-19T03:28:09;14.82;;;9.20;;
58097;SDS011;43913;55.940;37.504;2023-01-19T03:30:35;10.85;;;8.55;;
58097;SDS011;43913;55.940;37.504;2023-01-19T03:33:06;14.38;;;10.20;;
58097;SDS011;43913;55.940;37.504;2023-01-19T03:35:36;13.88;;;9.82;;
58097;SDS011;43913;55.940;37.504;2023-01-19T03:38:07;14.32;;;9.25;;
58097;SDS011;43913;55.940;37.504;2023-01-19T03:40:36;13.77;;;9.48;;
58097;SDS011;43913;55.940;37.504;2023-01-19T03:43:02;12.00;;;8.98;;
58097;SDS011;43913;55.940;37.504;2023-01-19T03:45:29;14.90;;;10.15;;
58097;SDS011;43913;55.940;37.504;2023-01-19T03:47:57;12.52;;;8.68;;
58097;SDS011;43913;55.940;37.504;2023-01-19T03:50:23;11.68;;;8.57;;
58097;SDS011;43913;55.940;37.504;2023-01-19T03:53:01;13.68;;;9.07;;
58097;SDS011;43913;55.940;37.504;2023-01-19T03:55:30;16.13;;;10.27;;
58097;SDS011;43913;55.940;37.504;2023-01-19T03:57:56;12.75;;;8.80;;
58097;SDS011;43913;55.940;37.504;2023-01-19T04:00:22;13.20;;;9.52;;
58097;SDS011;43913;55.940;37.504;2023-01-19T04:02:48;12.65;;;8.80;;
58097;SDS011;43913;55.940;37.504;2023-01-19T04:05:14;13.18;;;9.45;;
58097;SDS011;43913;55.940;37.504;2023-01-19T04:07:39;15.10;;;8.98;;
58097;SDS011;43913;55.940;37.504;2023-01-19T04:10:05;10.98;;;7.90;;
58097;SDS011;43913;55.940;37.504;2023-01-19T04:12:31;10.65;;;7.88;;
58097;SDS011;43913;55.940;37.504;2023-01-19T04:14:57;12.63;;;8.82;;
58097;SDS011;43913;55.940;37.504;2023-01-19T04:17:23;14.02;;;8.95;;
58097;SDS011;43913;55.940;37.504;2023-01-19T04:19:48;12.80;;;8.52;;
58097;SDS011;43913;55.940;37.504;2023-01-19T04:22:14;12.00;;;8.75;;
58097;SDS011;43913;55.940;37.504;2023-01-19T04:24:40;11.45;;;8.30;;
58097;SDS011;43913;55.940;37.504;2023-01-19T04:27:05;11.40;;;8.18;;
58097;SDS011;43913;55.940;37.504;2023-01-19T04:29:31;18.70;;;9.85;;
58097;SDS011;43913;55.940;37.504;2023-01-19T04:31:57;13.40;;;9.13;;
58097;SDS011;43913;55.940;37.504;2023-01-19T04:34:22;12.50;;;9.40;;
58097;SDS011;43913;55.940;37.504;2023-01-19T04:36:48;13.20;;;8.52;;
58097;SDS011;43913;55.940;37.504;2023-01-19T04:39:16;13.45;;;9.00;;
58097;SDS011;43913;55.940;37.504;2023-01-19T04:41:42;12.50;;;8.90;;
58097;SDS011;43913;55.940;37.504;2023-01-19T04:44:08;11.68;;;8.57;;
58097;SDS011;43913;55.940;37.504;2023-01-19T04:46:33;12.00;;;8.75;;
58097;SDS011;43913;55.940;37.504;2023-01-19T04:48:59;13.68;;;8.65;;
58097;SDS011;43913;55.940;37.504;2023-01-19T04:51:25;13.23;;;9.15;;
58097;SDS011;43913;55.940;37.504;2023-01-19T04:53:50;12.35;;;7.75;;
58097;SDS011;43913;55.940;37.504;2023-01-19T04:56:16;14.27;;;8.80;;
58097;SDS011;43913;55.940;37.504;2023-01-19T04:58:42;11.80;;;8.63;;
58097;SDS011;43913;55.940;37.504;2023-01-19T05:01:07;14.20;;;8.55;;
58097;SDS011;43913;55.940;37.504;2023-01-19T05:03:33;14.82;;;8.75;;
58097;SDS011;43913;55.940;37.504;2023-01-19T05:05:59;14.32;;;9.25;;
58097;SDS011;43913;55.940;37.504;2023-01-19T05:08:25;12.93;;;8.60;;
58097;SDS011;43913;55.940;37.504;2023-01-19T05:10:50;12.95;;;9.38;;
58097;SDS011;43913;55.940;37.504;2023-01-19T05:13:16;13.32;;;8.88;;
58097;SDS011;43913;55.940;37.504;2023-01-19T05:15:42;11.77;;;8.57;;
58097;SDS011;43913;55.940;37.504;2023-01-19T05:18:07;13.68;;;9.00;;
58097;SDS011;43913;55.940;37.504;2023-01-19T05:20:33;12.30;;;8.88;;
58097;SDS011;43913;55.940;37.504;2023-01-19T05:22:59;11.98;;;8.32;;
58097;SDS011;43913;55.940;37.504;2023-01-19T05:25:25;14.40;;;8.90;;
58097;SDS011;43913;55.940;37.504;2023-01-19T05:27:50;15.63;;;10.77;;
58097;SDS011;43913;55.940;37.504;2023-01-19T05:30:16;14.77;;;9.13;;
58097;SDS011;43913;55.940;37.504;2023-01-19T05:32:42;11.63;;;8.60;;
58097;SDS011;43913;55.940;37.504;2023-01-19T05:35:08;13.32;;;8.40;;
58097;SDS011;43913;55.940;37.504;2023-01-19T05:37:34;14.40;;;7.90;;
58097;SDS011;43913;55.940;37.504;2023-01-19T05:40:00;12.13;;;8.25;;
58097;SDS011;43913;55.940;37.504;2023-01-19T05:42:25;12.63;;;8.98;;
58097;SDS011;43913;55.940;37.504;2023-01-19T05:44:51;11.75;;;9.48;;
58097;SDS011;43913;55.940;37.504;2023-01-19T05:47:17;12.85;;;8.55;;
58097;SDS011;43913;55.940;37.504;2023-01-19T05:49:42;13.48;;;9.45;;
58097;SDS011;43913;55.940;37.504;2023-01-19T05:52:08;15.75;;;9.25;;
58097;SDS011;43913;55.940;37.504;2023-01-19T05:54:34;13.35;;;9.23;;
58097;SDS011;43913;55.940;37.504;2023-01-19T05:56:59;11.98;;;8.98;;
58097;SDS011;43913;55.940;37.504;2023-01-19T05:59:25;12.25;;;8.88;;
58097;SDS011;43913;55.940;37.504;2023-01-19T06:01:51;12.00;;;8.63;;
58097;SDS011;43913;55.940;37.504;2023-01-19T06:04:18;9.80;;;7.72;;
58097;SDS011;43913;55.940;37.504;2023-01-19T06:06:46;11.02;;;8.18;;
58097;SDS011;43913;55.940;37.504;2023-01-19T06:09:12;12.05;;;8.75;;
58097;SDS011;43913;55.940;37.504;2023-01-19T06:11:38;12.00;;;7.95;;
58097;SDS011;43913;55.940;37.504;2023-01-19T06:14:04;15.93;;;9.13;;
58097;SDS011;43913;55.940;37.504;2023-01-19T06:16:29;14.60;;;9.55;;
58097;SDS011;43913;55.940;37.504;2023-01-19T06:18:55;14.18;;;8.93;;
58097;SDS011;43913;55.940;37.504;2023-01-19T06:21:21;16.67;;;9.00;;
58097;SDS011;43913;55.940;37.504;2023-01-19T06:23:46;14.32;;;10.00;;
58097;SDS011;43913;55.940;37.504;2023-01-19T06:26:12;13.57;;;8.55;;
58097;SDS011;43913;55.940;37.504;2023-01-19T06:28:38;11.75;;;8.77;;
58097;SDS011;43913;55.940;37.504;2023-01-19T06:31:03;12.48;;;8.25;;
58097;SDS011;43913;55.940;37.504;2023-01-19T06:33:29;9.77;;;8.18;;
58097;SDS011;43913;55.940;37.504;2023-01-19T06:35:55;11.38;;;8.18;;
58097;SDS011;43913;55.940;37.504;2023-01-19T06:38:21;12.38;;;8.88;;
58097;SDS011;43913;55.940;37.504;2023-01-19T06:40:51;13.77;;;9.18;;
58097;SDS011;43913;55.940;37.504;2023-01-19T06:43:25;12.77;;;7.93;;
58097;SDS011;43913;55.940;37.504;2023-01-19T06:45:51;12.18;;;8.77;;
58097;SDS011;43913;55.940;37.504;2023-01-19T06:48:17;12.45;;;9.38;;
58097;SDS011;43913;55.940;37.504;2023-01-19T06:50:46;10.27;;;7.75;;
58097;SDS011;43913;55.940;37.504;2023-01-19T06:53:13;12.55;;;8.15;;
58097;SDS011;43913;55.940;37.504;2023-01-19T06:55:41;13.43;;;9.05;;
58097;SDS011;43913;55.940;37.504;2023-01-19T06:58:08;15.75;;;8.02;;
58097;SDS011;43913;55.940;37.504;2023-01-19T07:00:33;14.25;;;9.23;;
58097;SDS011;43913;55.940;37.504;2023-01-19T07:02:59;13.70;;;8.95;;
58097;SDS011;43913;55.940;37.504;2023-01-19T07:05:25;12.10;;;9.32;;
58097;SDS011;43913;55.940;37.504;2023-01-19T07:08:04;13.15;;;9.75;;
58097;SDS011;43913;55.940;37.504;2023-01-19T07:10:30;16.15;;;9.07;;
58097;SDS011;43913;55.940;37.504;2023-01-19T07:12:56;13.57;;;9.35;;
58097;SDS011;43913;55.940;37.504;2023-01-19T07:15:22;12.77;;;8.52;;
58097;SDS011;43913;55.940;37.504;2023-01-19T07:17:47;11.38;;;8.45;;
58097;SDS011;43913;55.940;37.504;2023-01-19T07:20:13;14.05;;;9.57;;
58097;SDS011;43913;55.940;37.504;2023-01-19T07:22:40;13.70;;;9.63;;
58097;SDS011;43913;55.940;37.504;2023-01-19T07:25:13;15.10;;;9.32;;
58097;SDS011;43913;55.940;37.504;2023-01-19T07:27:39;13.80;;;9.23;;
58097;SDS011;43913;55.940;37.504;2023-01-19T07:30:05;13.20;;;8.88;;
58097;SDS011;43913;55.940;37.504;2023-01-19T07:32:31;14.10;;;9.57;;
58097;SDS011;43913;55.940;37.504;2023-01-19T07:34:57;13.15;;;10.77;;
58097;SDS011;43913;55.940;37.504;2023-01-19T07:37:22;13.55;;;9.65;;
58097;SDS011;43913;55.940;37.504;2023-01-19T07:39:48;14.88;;;10.15;;
58097;SDS011;43913;55.940;37.504;2023-01-19T07:42:14;14.68;;;10.15;;
58097;SDS011;43913;55.940;37.504;2023-01-19T07:44:39;18.45;;;10.38;;
58097;SDS011;43913;55.940;37.504;2023-01-19T07:47:05;14.45;;;8.82;;
58097;SDS011;43913;55.940;37.504;2023-01-19T07:49:33;15.73;;;9.60;;
58097;SDS011;43913;55.940;37.504;2023-01-19T07:51:59;14.35;;;9.43;;
58097;SDS011;43913;55.940;37.504;2023-01-19T07:54:25;12.90;;;9.45;;
58097;SDS011;43913;55.940;37.504;2023-01-19T07:56:54;15.32;;;9.70;;
58097;SDS011;43913;55.940;37.504;2023-01-19T07:59:20;12.85;;;9.00;;
58097;SDS011;43913;55.940;37.504;2023-01-19T08:01:46;11.95;;;8.88;;
58097;SDS011;43913;55.940;37.504;2023-01-19T08:04:11;10.57;;;8.10;;
58097;SDS011;43913;55.940;37.504;2023-01-19T08:06:37;12.82;;;9.55;;
58097;SDS011;43913;55.940;37.504;2023-01-19T08:09:04;14.13;;;8.70;;
58097;SDS011;43913;55.940;37.504;2023-01-19T08:11:30;13.93;;;9.65;;
58097;SDS011;43913;55.940;37.504;2023-01-19T08:13:56;11.48;;;8.93;;
58097;SDS011;43913;55.940;37.504;2023-01-19T08:16:22;15.40;;;9.57;;
58097;SDS011;43913;55.940;37.504;2023-01-19T08:18:48;12.45;;;9.02;;
58097;SDS011;43913;55.940;37.504;2023-01-19T08:21:14;12.73;;;8.73;;
58097;SDS011;43913;55.940;37.504;2023-01-19T08:23:40;11.52;;;8.60;;
58097;SDS011;43913;55.940;37.504;2023-01-19T08:26:18;13.40;;;8.63;;
58097;SDS011;43913;55.940;37.504;2023-01-19T08:28:50;13.63;;;9.18;;
58097;SDS011;43913;55.940;37.504;2023-01-19T08:31:15;15.02;;;8.65;;
58097;SDS011;43913;55.940;37.504;2023-01-19T08:33:41;15.38;;;10.38;;
58097;SDS011;43913;55.940;37.504;2023-01-19T08:36:07;12.27;;;9.30;;
58097;SDS011;43913;55.940;37.504;2023-01-19T08:38:33;14.38;;;9.77;;
58097;SDS011;43913;55.940;37.504;2023-01-19T08:40:58;12.23;;;9.07;;
58097;SDS011;43913;55.940;37.504;2023-01-19T08:43:24;17.15;;;9.75;;
58097;SDS011;43913;55.940;37.504;2023-01-19T08:45:50;14.82;;;10.00;;
58097;SDS011;43913;55.940;37.504;2023-01-19T08:48:18;14.10;;;9.15;;
58097;SDS011;43913;55.940;37.504;2023-01-19T08:50:47;10.57;;;7.55;;
58097;SDS011;43913;55.940;37.504;2023-01-19T08:53:13;10.88;;;7.60;;
58097;SDS011;43913;55.940;37.504;2023-01-19T08:55:40;10.98;;;5.00;;
58097;SDS011;43913;55.940;37.504;2023-01-19T08:58:06;6.75;;;4.68;;
58097;SDS011;43913;55.940;37.504;2023-01-19T09:00:35;14.07;;;5.43;;
58097;SDS011;43913;55.940;37.504;2023-01-19T09:03:06;11.82;;;4.78;;
58097;SDS011;43913;55.940;37.504;2023-01-19T09:05:33;10.20;;;5.18;;
58097;SDS011;43913;55.940;37.504;2023-01-19T09:08:02;7.53;;;5.22;;
58097;SDS011;43913;55.940;37.504;2023-01-19T09:10:35;9.65;;;5.55;;
58097;SDS011;43913;55.940;37.504;2023-01-19T09:13:06;8.05;;;6.03;;
58097;SDS011;43913;55.940;37.504;2023-01-19T09:15:35;10.18;;;5.00;;
58097;SDS011;43913;55.940;37.504;2023-01-19T09:18:04;8.45;;;4.80;;
58097;SDS011;43913;55.940;37.504;2023-01-19T10:03:25;6.63;;;4.72;;
58097;SDS011;43913;55.940;37.504;2023-01-19T10:05:52;8.98;;;4.75;;
58097;SDS011;43913;55.940;37.504;2023-01-19T10:08:27;10.02;;;5.28;;
58097;SDS011;43913;55.940;37.504;2023-01-19T10:11:00;9.88;;;5.05;;
58097;SDS011;43913;55.940;37.504;2023-01-19T10:18:51;9.68;;;6.07;;
58097;SDS011;43913;55.940;37.504;2023-01-19T10:21:20;5.93;;;4.85;;
58097;SDS011;43913;55.940;37.504;2023-01-19T10:23:54;8.13;;;5.25;;
58097;SDS011;43913;55.940;37.504;2023-01-19T10:29:36;6.55;;;5.05;;
58097;SDS011;43913;55.940;37.504;2023-01-19T10:34:35;7.10;;;4.65;;
58097;SDS011;43913;55.940;37.504;2023-01-19T10:37:11;8.68;;;4.75;;
58097;SDS011;43913;55.940;37.504;2023-01-19T10:39:58;6.38;;;4.60;;
58097;SDS011;43913;55.940;37.504;2023-01-19T10:42:46;6.85;;;4.90;;
58097;SDS011;43913;55.940;37.504;2023-01-19T10:45:15;7.38;;;5.38;;
58097;SDS011;43913;55.940;37.504;2023-01-19T10:47:41;8.07;;;5.82;;
58097;SDS011;43913;55.940;37.504;2023-01-19T10:52:58;7.07;;;5.32;;
58097;SDS011;43913;55.940;37.504;2023-01-19T10:55:26;11.10;;;5.55;;
58097;SDS011;43913;55.940;37.504;2023-01-19T10:57:54;7.82;;;4.90;;
58097;SDS011;43913;55.940;37.504;2023-01-19T11:00:39;12.07;;;5.65;;
58097;SDS011;43913;55.940;37.504;2023-01-19T11:03:21;12.68;;;8.75;;
58097;SDS011;43913;55.940;37.504;2023-01-19T11:05:48;14.27;;;7.82;;
58097;SDS011;43913;55.940;37.504;2023-01-19T11:08:27;14.35;;;9.68;;
58097;SDS011;43913;55.940;37.504;2023-01-19T11:10:56;12.18;;;8.95;;
58097;SDS011;43913;55.940;37.504;2023-01-19T11:13:23;14.82;;;9.25;;
58097;SDS011;43913;55.940;37.504;2023-01-19T11:15:54;11.02;;;9.20;;
58097;SDS011;43913;55.940;37.504;2023-01-19T11:18:23;17.90;;;9.70;;
58097;SDS011;43913;55.940;37.504;2023-01-19T11:20:54;15.27;;;9.50;;
58097;SDS011;43913;55.940;37.504;2023-01-19T11:25:57;16.45;;;9.82;;
58097;SDS011;43913;55.940;37.504;2023-01-19T11:28:26;15.48;;;9.57;;
58097;SDS011;43913;55.940;37.504;2023-01-19T11:33:24;18.13;;;11.23;;
58097;SDS011;43913;55.940;37.504;2023-01-19T11:36:00;21.90;;;12.10;;
58097;SDS011;43913;55.940;37.504;2023-01-19T11:38:47;21.90;;;11.45;;
58097;SDS011;43913;55.940;37.504;2023-01-19T11:43:45;23.23;;;11.68;;
58097;SDS011;43913;55.940;37.504;2023-01-19T11:46:12;18.52;;;12.02;;
58097;SDS011;43913;55.940;37.504;2023-01-19T11:48:42;25.58;;;13.35;;
58097;SDS011;43913;55.940;37.504;2023-01-19T11:51:12;21.85;;;12.18;;
58097;SDS011;43913;55.940;37.504;2023-01-19T11:53:39;18.65;;;11.60;;
58097;SDS011;43913;55.940;37.504;2023-01-19T11:56:12;20.17;;;12.95;;
58097;SDS011;43913;55.940;37.504;2023-01-19T11:58:39;21.95;;;13.48;;
58097;SDS011;43913;55.940;37.504;2023-01-19T12:06:26;19.38;;;11.27;;
58097;SDS011;43913;55.940;37.504;2023-01-19T12:09:02;19.00;;;12.05;;
58097;SDS011;43913;55.940;37.504;2023-01-19T12:11:38;21.40;;;11.98;;
58097;SDS011;43913;55.940;37.504;2023-01-19T12:14:10;27.67;;;15.13;;
58097;SDS011;43913;55.940;37.504;2023-01-19T12:16:41;20.33;;;11.38;;
58097;SDS011;43913;55.940;37.504;2023-01-19T12:19:13;21.58;;;12.77;;
58097;SDS011;43913;55.940;37.504;2023-01-19T12:21:41;23.35;;;12.93;;
58097;SDS011;43913;55.940;37.504;2023-01-19T12:26:52;24.50;;;14.25;;
58097;SDS011;43913;55.940;37.504;2023-01-19T12:29:21;25.42;;;14.38;;
58097;SDS011;43913;55.940;37.504;2023-01-19T12:34:43;24.08;;;10.98;;
58097;SDS011;43913;55.940;37.504;2023-01-19T12:39:57;26.75;;;13.13;;
58097;SDS011;43913;55.940;37.504;2023-01-19T12:42:28;23.63;;;14.75;;
58097;SDS011;43913;55.940;37.504;2023-01-19T12:45:04;24.60;;;15.82;;
58097;SDS011;43913;55.940;37.504;2023-01-19T12:47:32;30.80;;;15.77;;
58097;SDS011;43913;55.940;37.504;2023-01-19T12:49:58;30.48;;;16.30;;
58097;SDS011;43913;55.940;37.504;2023-01-19T12:52:31;27.55;;;15.88;;
58097;SDS011;43913;55.940;37.504;2023-01-19T12:55:19;31.15;;;16.00;;
58097;SDS011;43913;55.940;37.504;2023-01-19T13:05:54;26.33;;;15.20;;
58097;SDS011;43913;55.940;37.504;2023-01-19T13:08:21;25.60;;;16.23;;
58097;SDS011;43913;55.940;37.504;2023-01-19T13:13:40;26.40;;;15.43;;
58097;SDS011;43913;55.940;37.504;2023-01-19T13:18:51;32.30;;;17.05;;
58097;SDS011;43913;55.940;37.504;2023-01-19T13:21:25;23.95;;;15.07;;
58097;SDS011;43913;55.940;37.504;2023-01-19T13:23:54;31.75;;;17.95;;
58097;SDS011;43913;55.940;37.504;2023-01-19T13:26:22;30.40;;;16.42;;
58097;SDS011;43913;55.940;37.504;2023-01-19T13:28:51;25.58;;;16.05;;
58097;SDS011;43913;55.940;37.504;2023-01-19T13:31:21;27.70;;;17.85;;
58097;SDS011;43913;55.940;37.504;2023-01-19T13:33:52;27.20;;;17.17;;
58097;SDS011;43913;55.940;37.504;2023-01-19T13:36:27;28.92;;;16.75;;
58097;SDS011;43913;55.940;37.504;2023-01-19T13:38:56;28.15;;;17.38;;
58097;SDS011;43913;55.940;37.504;2023-01-19T13:41:25;30.50;;;17.95;;
58097;SDS011;43913;55.940;37.504;2023-01-19T13:43:57;24.40;;;15.07;;
58097;SDS011;43913;55.940;37.504;2023-01-19T13:46:24;27.90;;;17.92;;
58097;SDS011;43913;55.940;37.504;2023-01-19T13:49:02;27.38;;;16.88;;
58097;SDS011;43913;55.940;37.504;2023-01-19T13:51:29;28.13;;;17.48;;
58097;SDS011;43913;55.940;37.504;2023-01-19T13:53:56;30.52;;;16.48;;
58097;SDS011;43913;55.940;37.504;2023-01-19T13:56:22;28.23;;;15.88;;
58097;SDS011;43913;55.940;37.504;2023-01-19T13:59:00;28.60;;;16.40;;
58097;SDS011;43913;55.940;37.504;2023-01-19T14:01:28;28.55;;;17.33;;
58097;SDS011;43913;55.940;37.504;2023-01-19T14:03:55;31.45;;;18.13;;
58097;SDS011;43913;55.940;37.504;2023-01-19T14:06:22;28.67;;;16.65;;
58097;SDS011;43913;55.940;37.504;2023-01-19T14:11:33;31.73;;;17.85;;
58097;SDS011;43913;55.940;37.504;2023-01-19T14:13:59;31.05;;;19.60;;
58097;SDS011;43913;55.940;37.504;2023-01-19T14:16:28;30.73;;;17.67;;
58097;SDS011;43913;55.940;37.504;2023-01-19T14:19:00;29.10;;;16.60;;
58097;SDS011;43913;55.940;37.504;2023-01-19T14:21:36;33.13;;;18.92;;
58097;SDS011;43913;55.940;37.504;2023-01-19T14:37:29;30.88;;;17.92;;
58097;SDS011;43913;55.940;37.504;2023-01-19T14:40:00;29.88;;;17.23;;
58097;SDS011;43913;55.940;37.504;2023-01-19T14:42:33;29.83;;;18.33;;
58097;SDS011;43913;55.940;37.504;2023-01-19T14:47:54;20.98;;;11.05;;
58097;SDS011;43913;55.940;37.504;2023-01-19T14:50:23;23.17;;;14.52;;
58097;SDS011;43913;55.940;37.504;2023-01-19T14:53:20;23.00;;;14.55;;
58097;SDS011;43913;55.940;37.504;2023-01-19T14:55:57;19.85;;;10.40;;
58097;SDS011;43913;55.940;37.504;2023-01-19T14:58:30;26.77;;;13.73;;
58097;SDS011;43913;55.940;37.504;2023-01-19T15:01:02;23.67;;;14.60;;
58097;SDS011;43913;55.940;37.504;2023-01-19T15:03:28;23.75;;;13.90;;
58097;SDS011;43913;55.940;37.504;2023-01-19T15:05:57;18.58;;;11.00;;
58097;SDS011;43913;55.940;37.504;2023-01-19T15:08:26;15.45;;;10.10;;
58097;SDS011;43913;55.940;37.504;2023-01-19T15:10:55;17.42;;;9.50;;
58097;SDS011;43913;55.940;37.504;2023-01-19T15:13:21;14.23;;;7.65;;
58097;SDS011;43913;55.940;37.504;2023-01-19T15:15:48;17.65;;;9.63;;
58097;SDS011;43913;55.940;37.504;2023-01-19T15:18:15;14.80;;;8.25;;
58097;SDS011;43913;55.940;37.504;2023-01-19T15:20:42;15.23;;;9.43;;
58097;SDS011;43913;55.940;37.504;2023-01-19T15:23:09;14.07;;;8.73;;
58097;SDS011;43913;55.940;37.504;2023-01-19T15:25:35;13.10;;;8.15;;
58097;SDS011;43913;55.940;37.504;2023-01-19T15:28:17;17.30;;;7.95;;
58097;SDS011;43913;55.940;37.504;2023-01-19T15:30:43;12.68;;;8.43;;
58097;SDS011;43913;55.940;37.504;2023-01-19T15:33:16;15.63;;;8.27;;
58097;SDS011;43913;55.940;37.504;2023-01-19T15:35:43;12.52;;;7.68;;
58097;SDS011;43913;55.940;37.504;2023-01-19T15:38:08;22.17;;;8.35;;
58097;SDS011;43913;55.940;37.504;2023-01-19T15:40:34;12.93;;;8.10;;
58097;SDS011;43913;55.940;37.504;2023-01-19T15:43:00;14.38;;;7.40;;
58097;SDS011;43913;55.940;37.504;2023-01-19T15:45:33;12.02;;;7.95;;
58097;SDS011;43913;55.940;37.504;2023-01-19T15:48:04;12.47;;;8.27;;
58097;SDS011;43913;55.940;37.504;2023-01-19T15:50:32;13.13;;;8.63;;
58097;SDS011;43913;55.940;37.504;2023-01-19T15:53:00;11.63;;;6.93;;
58097;SDS011;43913;55.940;37.504;2023-01-19T15:55:26;11.05;;;6.05;;
58097;SDS011;43913;55.940;37.504;2023-01-19T15:57:52;9.30;;;5.45;;
58097;SDS011;43913;55.940;37.504;2023-01-19T16:00:18;11.43;;;6.80;;
58097;SDS011;43913;55.940;37.504;2023-01-19T16:02:43;10.10;;;6.10;;
58097;SDS011;43913;55.940;37.504;2023-01-19T16:05:09;8.55;;;5.95;;
58097;SDS011;43913;55.940;37.504;2023-01-19T16:07:35;16.08;;;6.18;;
58097;SDS011;43913;55.940;37.504;2023-01-19T16:10:06;9.25;;;5.53;;
58097;SDS011;43913;55.940;37.504;2023-01-19T16:12:33;7.78;;;6.32;;
58097;SDS011;43913;55.940;37.504;2023-01-19T16:15:00;9.25;;;5.78;;
58097;SDS011;43913;55.940;37.504;2023-01-19T16:17:25;8.90;;;6.28;;
58097;SDS011;43913;55.940;37.504;2023-01-19T16:19:51;8.35;;;6.15;;
58097;SDS011;43913;55.940;37.504;2023-01-19T16:22:17;7.60;;;5.80;;
58097;SDS011;43913;55.940;37.504;2023-01-19T16:24:43;9.70;;;5.18;;
58097;SDS011;43913;55.940;37.504;2023-01-19T16:27:08;7.82;;;5.63;;
58097;SDS011;43913;55.940;37.504;2023-01-19T16:29:34;6.93;;;4.63;;